sensor_id;sensor_type;location;lat;lon;timestamp;P1;durP1;ratioP1;P2;durP2;ratioP2
10605;SDS011;5350;42.698;23.148;2023-04-29T00:00:00;7.27;;;3.40;;
10605;SDS011;5350;42.698;23.148;2023-04-29T00:02:27;5.17;;;2.73;;
10605;SDS011;5350;42.698;23.148;2023-04-29T00:04:55;5.50;;;2.77;;
10605;SDS011;5350;42.698;23.148;2023-04-29T00:07:21;4.43;;;2.90;;
10605;SDS011;5350;42.698;23.148;2023-04-29T00:09:48;6.60;;;3.27;;
10605;SDS011;5350;42.698;23.148;2023-04-29T00:12:16;4.17;;;2.63;;
10605;SDS011;5350;42.698;23.148;2023-04-29T00:14:43;5.47;;;3.17;;
10605;SDS011;5350;42.698;23.148;2023-04-29T00:17:10;3.37;;;2.70;;
10605;SDS011;5350;42.698;23.148;2023-04-29T00:19:36;3.90;;;2.80;;
10605;SDS011;5350;42.698;23.148;2023-04-29T00:22:03;4.23;;;2.83;;
10605;SDS011;5350;42.698;23.148;2023-04-29T00:24:30;3.10;;;2.80;;
10605;SDS011;5350;42.698;23.148;2023-04-29T00:26:56;4.03;;;3.10;;
10605;SDS011;5350;42.698;23.148;2023-04-29T00:29:25;4.60;;;2.67;;
10605;SDS011;5350;42.698;23.148;2023-04-29T00:31:51;6.43;;;3.43;;
10605;SDS011;5350;42.698;23.148;2023-04-29T00:34:18;5.03;;;2.77;;
10605;SDS011;5350;42.698;23.148;2023-04-29T00:36:45;5.37;;;2.57;;
10605;SDS011;5350;42.698;23.148;2023-04-29T00:39:12;4.33;;;2.70;;
10605;SDS011;5350;42.698;23.148;2023-04-29T00:41:38;2.97;;;2.60;;
10605;SDS011;5350;42.698;23.148;2023-04-29T00:44:05;3.40;;;2.53;;
10605;SDS011;5350;42.698;23.148;2023-04-29T00:49:01;4.23;;;2.93;;
10605;SDS011;5350;42.698;23.148;2023-04-29T00:51:28;8.27;;;2.83;;
10605;SDS011;5350;42.698;23.148;2023-04-29T00:53:55;4.20;;;2.80;;
10605;SDS011;5350;42.698;23.148;2023-04-29T00:56:22;4.93;;;2.93;;
10605;SDS011;5350;42.698;23.148;2023-04-29T00:58:49;3.13;;;2.63;;
10605;SDS011;5350;42.698;23.148;2023-04-29T01:01:17;3.77;;;2.93;;
10605;SDS011;5350;42.698;23.148;2023-04-29T01:03:47;5.03;;;2.57;;
10605;SDS011;5350;42.698;23.148;2023-04-29T01:06:19;3.73;;;3.07;;
10605;SDS011;5350;42.698;23.148;2023-04-29T01:09:00;3.87;;;3.17;;
10605;SDS011;5350;42.698;23.148;2023-04-29T01:11:46;11.83;;;6.93;;
10605;SDS011;5350;42.698;23.148;2023-04-29T01:14:18;9.80;;;5.40;;
10605;SDS011;5350;42.698;23.148;2023-04-29T01:16:46;9.33;;;4.67;;
10605;SDS011;5350;42.698;23.148;2023-04-29T01:19:21;6.47;;;3.80;;
10605;SDS011;5350;42.698;23.148;2023-04-29T01:22:05;7.60;;;5.23;;
10605;SDS011;5350;42.698;23.148;2023-04-29T01:24:33;3.57;;;3.17;;
10605;SDS011;5350;42.698;23.148;2023-04-29T01:27:01;10.77;;;3.67;;
10605;SDS011;5350;42.698;23.148;2023-04-29T01:29:39;5.73;;;3.90;;
10605;SDS011;5350;42.698;23.148;2023-04-29T01:32:12;4.13;;;3.47;;
10605;SDS011;5350;42.698;23.148;2023-04-29T01:34:46;4.93;;;4.20;;
10605;SDS011;5350;42.698;23.148;2023-04-29T01:37:21;4.40;;;3.57;;
10605;SDS011;5350;42.698;23.148;2023-04-29T01:40:04;12.73;;;9.73;;
10605;SDS011;5350;42.698;23.148;2023-04-29T01:42:38;19.97;;;12.43;;
10605;SDS011;5350;42.698;23.148;2023-04-29T01:45:10;31.20;;;19.90;;
10605;SDS011;5350;42.698;23.148;2023-04-29T01:47:41;51.47;;;34.20;;
10605;SDS011;5350;42.698;23.148;2023-04-29T01:50:10;31.93;;;21.90;;
10605;SDS011;5350;42.698;23.148;2023-04-29T01:52:37;33.37;;;21.27;;
10605;SDS011;5350;42.698;23.148;2023-04-29T01:55:05;29.47;;;18.53;;
10605;SDS011;5350;42.698;23.148;2023-04-29T01:57:33;15.63;;;10.00;;
10605;SDS011;5350;42.698;23.148;2023-04-29T01:59:59;12.87;;;7.43;;
10605;SDS011;5350;42.698;23.148;2023-04-29T02:02:26;6.63;;;4.87;;
10605;SDS011;5350;42.698;23.148;2023-04-29T02:04:53;5.53;;;4.70;;
10605;SDS011;5350;42.698;23.148;2023-04-29T02:07:20;4.93;;;4.10;;
10605;SDS011;5350;42.698;23.148;2023-04-29T02:09:46;9.33;;;4.03;;
10605;SDS011;5350;42.698;23.148;2023-04-29T02:12:14;6.27;;;5.67;;
10605;SDS011;5350;42.698;23.148;2023-04-29T02:14:41;5.63;;;4.43;;
10605;SDS011;5350;42.698;23.148;2023-04-29T02:17:08;7.17;;;3.80;;
10605;SDS011;5350;42.698;23.148;2023-04-29T02:19:34;8.03;;;5.40;;
10605;SDS011;5350;42.698;23.148;2023-04-29T02:22:01;7.47;;;4.57;;
10605;SDS011;5350;42.698;23.148;2023-04-29T02:24:28;7.33;;;5.13;;
10605;SDS011;5350;42.698;23.148;2023-04-29T02:26:55;7.83;;;5.37;;
10605;SDS011;5350;42.698;23.148;2023-04-29T02:29:24;6.53;;;4.63;;
10605;SDS011;5350;42.698;23.148;2023-04-29T02:31:53;5.87;;;3.83;;
10605;SDS011;5350;42.698;23.148;2023-04-29T02:34:20;6.97;;;4.33;;
10605;SDS011;5350;42.698;23.148;2023-04-29T02:36:48;6.57;;;3.90;;
10605;SDS011;5350;42.698;23.148;2023-04-29T02:39:14;4.87;;;3.80;;
10605;SDS011;5350;42.698;23.148;2023-04-29T02:41:41;4.10;;;3.70;;
10605;SDS011;5350;42.698;23.148;2023-04-29T02:44:08;7.13;;;3.63;;
10605;SDS011;5350;42.698;23.148;2023-04-29T02:46:36;4.80;;;3.87;;
10605;SDS011;5350;42.698;23.148;2023-04-29T02:49:05;7.13;;;4.10;;
10605;SDS011;5350;42.698;23.148;2023-04-29T02:51:32;5.60;;;3.67;;
10605;SDS011;5350;42.698;23.148;2023-04-29T02:53:59;6.97;;;3.77;;
10605;SDS011;5350;42.698;23.148;2023-04-29T02:56:25;5.13;;;3.60;;
10605;SDS011;5350;42.698;23.148;2023-04-29T02:58:52;4.70;;;3.43;;
10605;SDS011;5350;42.698;23.148;2023-04-29T03:01:18;5.37;;;3.50;;
10605;SDS011;5350;42.698;23.148;2023-04-29T03:03:46;6.13;;;3.60;;
10605;SDS011;5350;42.698;23.148;2023-04-29T03:06:14;5.80;;;4.03;;
10605;SDS011;5350;42.698;23.148;2023-04-29T03:08:41;5.97;;;4.47;;
10605;SDS011;5350;42.698;23.148;2023-04-29T03:11:07;5.93;;;3.97;;
10605;SDS011;5350;42.698;23.148;2023-04-29T03:13:34;5.03;;;3.63;;
10605;SDS011;5350;42.698;23.148;2023-04-29T03:16:01;5.63;;;3.80;;
10605;SDS011;5350;42.698;23.148;2023-04-29T03:18:28;5.77;;;3.60;;
10605;SDS011;5350;42.698;23.148;2023-04-29T03:20:56;5.57;;;3.73;;
10605;SDS011;5350;42.698;23.148;2023-04-29T03:23:23;7.83;;;4.13;;
10605;SDS011;5350;42.698;23.148;2023-04-29T03:25:50;7.07;;;4.17;;
10605;SDS011;5350;42.698;23.148;2023-04-29T03:28:19;8.93;;;4.07;;
10605;SDS011;5350;42.698;23.148;2023-04-29T03:30:46;6.87;;;3.70;;
10605;SDS011;5350;42.698;23.148;2023-04-29T03:33:13;4.83;;;3.90;;
10605;SDS011;5350;42.698;23.148;2023-04-29T03:35:39;6.93;;;4.53;;
10605;SDS011;5350;42.698;23.148;2023-04-29T03:38:07;7.33;;;4.30;;
10605;SDS011;5350;42.698;23.148;2023-04-29T03:40:34;8.07;;;4.10;;
10605;SDS011;5350;42.698;23.148;2023-04-29T03:43:01;6.67;;;4.20;;
10605;SDS011;5350;42.698;23.148;2023-04-29T03:45:27;6.80;;;4.63;;
10605;SDS011;5350;42.698;23.148;2023-04-29T03:47:54;10.33;;;4.50;;
10605;SDS011;5350;42.698;23.148;2023-04-29T03:50:21;8.60;;;4.80;;
10605;SDS011;5350;42.698;23.148;2023-04-29T03:52:48;8.10;;;5.10;;
10605;SDS011;5350;42.698;23.148;2023-04-29T03:55:16;8.37;;;4.93;;
10605;SDS011;5350;42.698;23.148;2023-04-29T03:57:43;7.23;;;4.17;;
10605;SDS011;5350;42.698;23.148;2023-04-29T04:00:10;9.03;;;4.40;;
10605;SDS011;5350;42.698;23.148;2023-04-29T04:02:38;7.23;;;5.20;;
10605;SDS011;5350;42.698;23.148;2023-04-29T04:05:04;5.87;;;4.43;;
10605;SDS011;5350;42.698;23.148;2023-04-29T04:07:31;8.17;;;5.23;;
10605;SDS011;5350;42.698;23.148;2023-04-29T04:09:58;5.87;;;4.00;;
10605;SDS011;5350;42.698;23.148;2023-04-29T04:12:26;4.23;;;3.40;;
10605;SDS011;5350;42.698;23.148;2023-04-29T04:14:53;6.07;;;4.00;;
10605;SDS011;5350;42.698;23.148;2023-04-29T04:17:19;4.13;;;3.07;;
10605;SDS011;5350;42.698;23.148;2023-04-29T04:19:46;6.30;;;4.07;;
10605;SDS011;5350;42.698;23.148;2023-04-29T04:22:13;5.83;;;3.87;;
10605;SDS011;5350;42.698;23.148;2023-04-29T04:24:41;6.70;;;4.10;;
10605;SDS011;5350;42.698;23.148;2023-04-29T04:27:07;4.40;;;3.87;;
10605;SDS011;5350;42.698;23.148;2023-04-29T04:29:36;6.10;;;4.23;;
10605;SDS011;5350;42.698;23.148;2023-04-29T04:32:03;5.60;;;4.33;;
10605;SDS011;5350;42.698;23.148;2023-04-29T04:34:30;8.70;;;4.27;;
10605;SDS011;5350;42.698;23.148;2023-04-29T04:36:57;6.00;;;4.47;;
10605;SDS011;5350;42.698;23.148;2023-04-29T04:39:24;6.93;;;3.97;;
10605;SDS011;5350;42.698;23.148;2023-04-29T04:41:51;5.30;;;4.10;;
10605;SDS011;5350;42.698;23.148;2023-04-29T04:44:17;5.77;;;3.80;;
10605;SDS011;5350;42.698;23.148;2023-04-29T04:46:46;7.40;;;4.20;;
10605;SDS011;5350;42.698;23.148;2023-04-29T04:49:13;5.03;;;4.33;;
10605;SDS011;5350;42.698;23.148;2023-04-29T04:51:42;7.73;;;4.10;;
10605;SDS011;5350;42.698;23.148;2023-04-29T04:54:09;7.07;;;4.40;;
10605;SDS011;5350;42.698;23.148;2023-04-29T04:56:36;9.67;;;5.23;;
10605;SDS011;5350;42.698;23.148;2023-04-29T04:59:03;6.97;;;4.93;;
10605;SDS011;5350;42.698;23.148;2023-04-29T05:01:29;8.53;;;4.70;;
10605;SDS011;5350;42.698;23.148;2023-04-29T05:03:57;8.27;;;5.10;;
10605;SDS011;5350;42.698;23.148;2023-04-29T05:06:24;6.47;;;5.17;;
10605;SDS011;5350;42.698;23.148;2023-04-29T05:08:51;7.93;;;4.60;;
10605;SDS011;5350;42.698;23.148;2023-04-29T05:11:18;6.80;;;5.13;;
10605;SDS011;5350;42.698;23.148;2023-04-29T05:13:45;13.13;;;4.93;;
10605;SDS011;5350;42.698;23.148;2023-04-29T05:16:12;7.07;;;4.67;;
10605;SDS011;5350;42.698;23.148;2023-04-29T05:18:41;10.50;;;4.77;;
10605;SDS011;5350;42.698;23.148;2023-04-29T05:21:11;7.13;;;4.63;;
10605;SDS011;5350;42.698;23.148;2023-04-29T05:23:37;6.57;;;4.40;;
10605;SDS011;5350;42.698;23.148;2023-04-29T05:26:04;4.93;;;4.20;;
10605;SDS011;5350;42.698;23.148;2023-04-29T05:28:31;7.77;;;4.83;;
10605;SDS011;5350;42.698;23.148;2023-04-29T05:30:57;9.03;;;4.47;;
10605;SDS011;5350;42.698;23.148;2023-04-29T05:33:24;6.07;;;4.33;;
10605;SDS011;5350;42.698;23.148;2023-04-29T05:35:51;7.13;;;4.47;;
10605;SDS011;5350;42.698;23.148;2023-04-29T05:38:19;8.33;;;5.73;;
10605;SDS011;5350;42.698;23.148;2023-04-29T05:40:46;9.63;;;5.73;;
10605;SDS011;5350;42.698;23.148;2023-04-29T05:43:14;7.93;;;6.13;;
10605;SDS011;5350;42.698;23.148;2023-04-29T05:45:40;9.83;;;5.97;;
10605;SDS011;5350;42.698;23.148;2023-04-29T05:48:07;8.67;;;5.50;;
10605;SDS011;5350;42.698;23.148;2023-04-29T05:50:34;10.03;;;5.83;;
10605;SDS011;5350;42.698;23.148;2023-04-29T05:53:00;12.73;;;5.80;;
10605;SDS011;5350;42.698;23.148;2023-04-29T05:55:30;10.50;;;5.73;;
10605;SDS011;5350;42.698;23.148;2023-04-29T05:57:57;7.73;;;5.27;;
10605;SDS011;5350;42.698;23.148;2023-04-29T06:00:24;10.90;;;6.40;;
10605;SDS011;5350;42.698;23.148;2023-04-29T06:02:50;9.03;;;5.80;;
10605;SDS011;5350;42.698;23.148;2023-04-29T06:05:17;11.47;;;5.83;;
10605;SDS011;5350;42.698;23.148;2023-04-29T06:07:44;10.13;;;5.47;;
10605;SDS011;5350;42.698;23.148;2023-04-29T06:10:11;8.67;;;6.07;;
10605;SDS011;5350;42.698;23.148;2023-04-29T06:12:39;8.93;;;5.83;;
10605;SDS011;5350;42.698;23.148;2023-04-29T06:15:06;10.50;;;5.97;;
10605;SDS011;5350;42.698;23.148;2023-04-29T06:17:33;10.27;;;6.40;;
10605;SDS011;5350;42.698;23.148;2023-04-29T06:20:00;8.13;;;5.97;;
10605;SDS011;5350;42.698;23.148;2023-04-29T06:22:28;6.97;;;5.30;;
10605;SDS011;5350;42.698;23.148;2023-04-29T06:24:55;11.70;;;6.00;;
10605;SDS011;5350;42.698;23.148;2023-04-29T06:27:21;7.43;;;5.63;;
10605;SDS011;5350;42.698;23.148;2023-04-29T06:29:49;7.70;;;5.10;;
10605;SDS011;5350;42.698;23.148;2023-04-29T06:32:17;8.20;;;5.07;;
10605;SDS011;5350;42.698;23.148;2023-04-29T06:34:43;5.97;;;4.97;;
10605;SDS011;5350;42.698;23.148;2023-04-29T06:37:11;6.57;;;5.00;;
10605;SDS011;5350;42.698;23.148;2023-04-29T06:39:37;7.13;;;5.17;;
10605;SDS011;5350;42.698;23.148;2023-04-29T06:42:04;8.43;;;5.20;;
10605;SDS011;5350;42.698;23.148;2023-04-29T06:44:31;9.87;;;4.80;;
10605;SDS011;5350;42.698;23.148;2023-04-29T06:46:59;6.90;;;4.83;;
10605;SDS011;5350;42.698;23.148;2023-04-29T06:49:26;6.27;;;4.67;;
10605;SDS011;5350;42.698;23.148;2023-04-29T06:51:52;6.27;;;4.80;;
10605;SDS011;5350;42.698;23.148;2023-04-29T06:54:19;7.73;;;5.07;;
10605;SDS011;5350;42.698;23.148;2023-04-29T06:56:46;7.63;;;4.60;;
10605;SDS011;5350;42.698;23.148;2023-04-29T06:59:13;9.90;;;4.43;;
10605;SDS011;5350;42.698;23.148;2023-04-29T07:01:40;6.93;;;4.57;;
10605;SDS011;5350;42.698;23.148;2023-04-29T07:04:08;6.33;;;4.50;;
10605;SDS011;5350;42.698;23.148;2023-04-29T07:06:35;9.37;;;5.43;;
10605;SDS011;5350;42.698;23.148;2023-04-29T07:09:02;9.67;;;4.97;;
10605;SDS011;5350;42.698;23.148;2023-04-29T07:11:29;8.17;;;4.40;;
10605;SDS011;5350;42.698;23.148;2023-04-29T07:13:56;11.33;;;5.03;;
10605;SDS011;5350;42.698;23.148;2023-04-29T07:16:22;9.17;;;4.43;;
10605;SDS011;5350;42.698;23.148;2023-04-29T07:18:50;9.53;;;5.20;;
10605;SDS011;5350;42.698;23.148;2023-04-29T07:21:18;6.83;;;3.70;;
10605;SDS011;5350;42.698;23.148;2023-04-29T07:23:45;7.60;;;4.13;;
10605;SDS011;5350;42.698;23.148;2023-04-29T07:26:12;7.63;;;4.10;;
10605;SDS011;5350;42.698;23.148;2023-04-29T07:28:41;7.03;;;3.93;;
10605;SDS011;5350;42.698;23.148;2023-04-29T07:31:08;7.97;;;3.33;;
10605;SDS011;5350;42.698;23.148;2023-04-29T07:33:36;8.77;;;3.93;;
10605;SDS011;5350;42.698;23.148;2023-04-29T07:36:03;4.80;;;3.93;;
10605;SDS011;5350;42.698;23.148;2023-04-29T07:38:32;6.50;;;3.60;;
10605;SDS011;5350;42.698;23.148;2023-04-29T07:41:01;6.87;;;3.90;;
10605;SDS011;5350;42.698;23.148;2023-04-29T07:43:28;6.90;;;3.80;;
10605;SDS011;5350;42.698;23.148;2023-04-29T07:45:55;5.00;;;3.23;;
10605;SDS011;5350;42.698;23.148;2023-04-29T07:48:22;5.93;;;3.63;;
10605;SDS011;5350;42.698;23.148;2023-04-29T07:50:48;4.93;;;3.85;;
10605;SDS011;5350;42.698;23.148;2023-04-29T07:53:15;4.78;;;3.55;;
10605;SDS011;5350;42.698;23.148;2023-04-29T07:55:43;5.13;;;3.83;;
10605;SDS011;5350;42.698;23.148;2023-04-29T07:58:11;5.90;;;3.05;;
10605;SDS011;5350;42.698;23.148;2023-04-29T08:00:38;5.72;;;3.53;;
10605;SDS011;5350;42.698;23.148;2023-04-29T08:03:05;7.22;;;4.15;;
10605;SDS011;5350;42.698;23.148;2023-04-29T08:05:31;6.53;;;3.58;;
10605;SDS011;5350;42.698;23.148;2023-04-29T08:07:58;6.13;;;3.70;;
10605;SDS011;5350;42.698;23.148;2023-04-29T08:10:25;7.15;;;3.50;;
10605;SDS011;5350;42.698;23.148;2023-04-29T08:12:53;5.88;;;3.55;;
10605;SDS011;5350;42.698;23.148;2023-04-29T08:15:20;7.22;;;3.50;;
10605;SDS011;5350;42.698;23.148;2023-04-29T08:17:46;10.02;;;3.97;;
10605;SDS011;5350;42.698;23.148;2023-04-29T08:20:13;5.47;;;3.97;;
10605;SDS011;5350;42.698;23.148;2023-04-29T08:22:40;7.28;;;3.63;;
10605;SDS011;5350;42.698;23.148;2023-04-29T08:25:07;7.45;;;4.00;;
10605;SDS011;5350;42.698;23.148;2023-04-29T08:27:35;5.68;;;3.85;;
10605;SDS011;5350;42.698;23.148;2023-04-29T08:30:03;5.15;;;3.70;;
10605;SDS011;5350;42.698;23.148;2023-04-29T08:32:31;5.28;;;3.60;;
10605;SDS011;5350;42.698;23.148;2023-04-29T08:34:59;4.72;;;3.53;;
10605;SDS011;5350;42.698;23.148;2023-04-29T08:37:26;3.97;;;3.28;;
10605;SDS011;5350;42.698;23.148;2023-04-29T08:39:52;4.50;;;3.33;;
10605;SDS011;5350;42.698;23.148;2023-04-29T08:42:20;5.80;;;3.50;;
10605;SDS011;5350;42.698;23.148;2023-04-29T08:44:59;7.55;;;3.80;;
10605;SDS011;5350;42.698;23.148;2023-04-29T08:47:27;5.78;;;3.45;;
10605;SDS011;5350;42.698;23.148;2023-04-29T08:49:55;6.25;;;3.33;;
10605;SDS011;5350;42.698;23.148;2023-04-29T08:52:23;5.03;;;3.30;;
10605;SDS011;5350;42.698;23.148;2023-04-29T08:54:50;6.55;;;3.72;;
10605;SDS011;5350;42.698;23.148;2023-04-29T08:57:17;3.97;;;3.38;;
10605;SDS011;5350;42.698;23.148;2023-04-29T08:59:45;4.38;;;3.40;;
10605;SDS011;5350;42.698;23.148;2023-04-29T09:02:12;4.93;;;3.10;;
10605;SDS011;5350;42.698;23.148;2023-04-29T09:04:46;9.43;;;3.90;;
10605;SDS011;5350;42.698;23.148;2023-04-29T09:07:16;7.90;;;4.05;;
10605;SDS011;5350;42.698;23.148;2023-04-29T09:09:43;8.27;;;3.88;;
10605;SDS011;5350;42.698;23.148;2023-04-29T09:12:10;4.80;;;3.65;;
10605;SDS011;5350;42.698;23.148;2023-04-29T09:14:37;7.97;;;3.50;;
10605;SDS011;5350;42.698;23.148;2023-04-29T09:17:03;7.10;;;3.70;;
10605;SDS011;5350;42.698;23.148;2023-04-29T09:19:30;7.95;;;3.70;;
10605;SDS011;5350;42.698;23.148;2023-04-29T09:22:00;9.00;;;3.72;;
10605;SDS011;5350;42.698;23.148;2023-04-29T09:24:27;5.50;;;3.90;;
10605;SDS011;5350;42.698;23.148;2023-04-29T09:26:55;7.07;;;3.95;;
10605;SDS011;5350;42.698;23.148;2023-04-29T09:29:23;6.70;;;3.55;;
10605;SDS011;5350;42.698;23.148;2023-04-29T09:31:50;5.38;;;3.25;;
10605;SDS011;5350;42.698;23.148;2023-04-29T09:34:17;5.80;;;3.50;;
10605;SDS011;5350;42.698;23.148;2023-04-29T09:36:56;5.63;;;3.42;;
10605;SDS011;5350;42.698;23.148;2023-04-29T09:39:24;7.63;;;3.58;;
10605;SDS011;5350;42.698;23.148;2023-04-29T09:41:58;7.72;;;3.60;;
10605;SDS011;5350;42.698;23.148;2023-04-29T09:44:27;6.25;;;3.42;;
10605;SDS011;5350;42.698;23.148;2023-04-29T09:46:55;3.42;;;3.13;;
10605;SDS011;5350;42.698;23.148;2023-04-29T09:49:22;4.07;;;3.50;;
10605;SDS011;5350;42.698;23.148;2023-04-29T09:51:54;6.22;;;2.92;;
10605;SDS011;5350;42.698;23.148;2023-04-29T09:54:22;6.78;;;3.30;;
10605;SDS011;5350;42.698;23.148;2023-04-29T09:56:51;5.47;;;3.22;;
10605;SDS011;5350;42.698;23.148;2023-04-29T09:59:18;5.45;;;3.13;;
10605;SDS011;5350;42.698;23.148;2023-04-29T10:01:46;6.93;;;3.05;;
10605;SDS011;5350;42.698;23.148;2023-04-29T10:04:15;4.93;;;2.85;;
10605;SDS011;5350;42.698;23.148;2023-04-29T10:06:43;5.70;;;2.83;;
10605;SDS011;5350;42.698;23.148;2023-04-29T10:09:12;4.60;;;2.65;;
10605;SDS011;5350;42.698;23.148;2023-04-29T10:11:41;5.05;;;3.05;;
10605;SDS011;5350;42.698;23.148;2023-04-29T10:14:11;4.38;;;2.80;;
10605;SDS011;5350;42.698;23.148;2023-04-29T10:16:44;4.80;;;2.30;;
10605;SDS011;5350;42.698;23.148;2023-04-29T10:19:14;2.65;;;2.40;;
10605;SDS011;5350;42.698;23.148;2023-04-29T10:21:45;5.78;;;2.67;;
10605;SDS011;5350;42.698;23.148;2023-04-29T10:24:15;6.50;;;2.67;;
10605;SDS011;5350;42.698;23.148;2023-04-29T10:26:43;5.15;;;2.17;;
10605;SDS011;5350;42.698;23.148;2023-04-29T10:29:11;2.83;;;2.22;;
10605;SDS011;5350;42.698;23.148;2023-04-29T10:31:40;3.42;;;2.35;;
10605;SDS011;5350;42.698;23.148;2023-04-29T10:34:08;5.78;;;2.50;;
10605;SDS011;5350;42.698;23.148;2023-04-29T10:36:37;7.25;;;2.67;;
10605;SDS011;5350;42.698;23.148;2023-04-29T10:39:04;3.58;;;2.13;;
10605;SDS011;5350;42.698;23.148;2023-04-29T10:41:41;4.10;;;2.10;;
10605;SDS011;5350;42.698;23.148;2023-04-29T10:44:12;5.22;;;2.70;;
10605;SDS011;5350;42.698;23.148;2023-04-29T10:46:39;3.55;;;2.42;;
10605;SDS011;5350;42.698;23.148;2023-04-29T10:49:06;2.78;;;2.38;;
10605;SDS011;5350;42.698;23.148;2023-04-29T10:51:33;4.13;;;2.20;;
10605;SDS011;5350;42.698;23.148;2023-04-29T10:54:06;4.63;;;2.50;;
10605;SDS011;5350;42.698;23.148;2023-04-29T10:56:34;2.83;;;1.90;;
10605;SDS011;5350;42.698;23.148;2023-04-29T10:59:02;3.38;;;2.22;;
10605;SDS011;5350;42.698;23.148;2023-04-29T11:01:40;4.05;;;2.38;;
10605;SDS011;5350;42.698;23.148;2023-04-29T11:04:08;3.55;;;2.50;;
10605;SDS011;5350;42.698;23.148;2023-04-29T11:06:40;4.30;;;2.22;;
10605;SDS011;5350;42.698;23.148;2023-04-29T11:09:13;4.35;;;2.42;;
10605;SDS011;5350;42.698;23.148;2023-04-29T11:11:47;2.65;;;1.75;;
10605;SDS011;5350;42.698;23.148;2023-04-29T11:14:23;3.65;;;2.17;;
10605;SDS011;5350;42.698;23.148;2023-04-29T11:16:52;2.72;;;1.83;;
10605;SDS011;5350;42.698;23.148;2023-04-29T11:19:22;3.10;;;2.22;;
10605;SDS011;5350;42.698;23.148;2023-04-29T11:22:02;2.75;;;1.63;;
10605;SDS011;5350;42.698;23.148;2023-04-29T11:27:25;4.18;;;2.10;;
10605;SDS011;5350;42.698;23.148;2023-04-29T11:29:56;4.93;;;2.10;;
10605;SDS011;5350;42.698;23.148;2023-04-29T11:32:25;3.38;;;2.22;;
10605;SDS011;5350;42.698;23.148;2023-04-29T11:34:52;8.60;;;2.28;;
10605;SDS011;5350;42.698;23.148;2023-04-29T11:37:20;2.65;;;1.90;;
10605;SDS011;5350;42.698;23.148;2023-04-29T11:39:48;2.92;;;1.80;;
10605;SDS011;5350;42.698;23.148;2023-04-29T11:42:18;3.15;;;1.67;;
10605;SDS011;5350;42.698;23.148;2023-04-29T11:44:45;2.50;;;1.75;;
10605;SDS011;5350;42.698;23.148;2023-04-29T11:47:12;3.15;;;1.58;;
10605;SDS011;5350;42.698;23.148;2023-04-29T11:49:40;4.05;;;2.00;;
10605;SDS011;5350;42.698;23.148;2023-04-29T11:52:07;3.83;;;1.52;;
10605;SDS011;5350;42.698;23.148;2023-04-29T11:54:33;3.60;;;1.60;;
10605;SDS011;5350;42.698;23.148;2023-04-29T11:57:00;2.45;;;1.20;;
10605;SDS011;5350;42.698;23.148;2023-04-29T11:59:29;2.75;;;0.90;;
10605;SDS011;5350;42.698;23.148;2023-04-29T12:01:56;1.95;;;1.00;;
10605;SDS011;5350;42.698;23.148;2023-04-29T12:04:24;1.95;;;1.25;;
10605;SDS011;5350;42.698;23.148;2023-04-29T12:06:52;3.70;;;1.20;;
10605;SDS011;5350;42.698;23.148;2023-04-29T12:09:22;2.45;;;1.05;;
10605;SDS011;5350;42.698;23.148;2023-04-29T12:11:48;4.53;;;1.15;;
10605;SDS011;5350;42.698;23.148;2023-04-29T12:14:15;1.42;;;0.90;;
10605;SDS011;5350;42.698;23.148;2023-04-29T12:16:43;1.60;;;1.08;;
10605;SDS011;5350;42.698;23.148;2023-04-29T12:19:10;3.90;;;0.90;;
10605;SDS011;5350;42.698;23.148;2023-04-29T12:21:46;2.17;;;1.10;;
10605;SDS011;5350;42.698;23.148;2023-04-29T12:24:15;2.33;;;1.08;;
10605;SDS011;5350;42.698;23.148;2023-04-29T12:26:43;1.30;;;1.20;;
10605;SDS011;5350;42.698;23.148;2023-04-29T12:29:10;2.40;;;1.23;;
10605;SDS011;5350;42.698;23.148;2023-04-29T12:31:38;1.02;;;0.90;;
10605;SDS011;5350;42.698;23.148;2023-04-29T12:34:06;2.10;;;1.00;;
10605;SDS011;5350;42.698;23.148;2023-04-29T12:36:33;2.10;;;1.00;;
10605;SDS011;5350;42.698;23.148;2023-04-29T12:39:01;3.55;;;1.00;;
10605;SDS011;5350;42.698;23.148;2023-04-29T12:41:37;1.02;;;0.93;;
10605;SDS011;5350;42.698;23.148;2023-04-29T12:44:05;1.35;;;1.00;;
10605;SDS011;5350;42.698;23.148;2023-04-29T12:46:35;1.35;;;0.88;;
10605;SDS011;5350;42.698;23.148;2023-04-29T12:49:03;1.23;;;1.00;;
10605;SDS011;5350;42.698;23.148;2023-04-29T12:51:30;1.60;;;1.20;;
10605;SDS011;5350;42.698;23.148;2023-04-29T12:53:58;2.47;;;0.77;;
10605;SDS011;5350;42.698;23.148;2023-04-29T12:56:25;1.00;;;0.82;;
10605;SDS011;5350;42.698;23.148;2023-04-29T12:58:54;1.13;;;0.95;;
10605;SDS011;5350;42.698;23.148;2023-04-29T13:01:20;2.58;;;1.10;;
10605;SDS011;5350;42.698;23.148;2023-04-29T13:03:47;4.18;;;2.33;;
10605;SDS011;5350;42.698;23.148;2023-04-29T13:06:15;3.63;;;1.80;;
10605;SDS011;5350;42.698;23.148;2023-04-29T13:08:42;1.08;;;1.00;;
10605;SDS011;5350;42.698;23.148;2023-04-29T13:11:09;2.05;;;1.05;;
10605;SDS011;5350;42.698;23.148;2023-04-29T13:13:37;2.88;;;1.17;;
10605;SDS011;5350;42.698;23.148;2023-04-29T13:16:06;2.70;;;1.25;;
10605;SDS011;5350;42.698;23.148;2023-04-29T13:18:33;2.20;;;1.30;;
10605;SDS011;5350;42.698;23.148;2023-04-29T13:21:00;1.98;;;1.20;;
10605;SDS011;5350;42.698;23.148;2023-04-29T13:23:27;3.33;;;0.90;;
10605;SDS011;5350;42.698;23.148;2023-04-29T13:25:54;7.00;;;0.93;;
10605;SDS011;5350;42.698;23.148;2023-04-29T13:28:20;1.10;;;0.73;;
10605;SDS011;5350;42.698;23.148;2023-04-29T13:30:48;2.88;;;0.80;;
10605;SDS011;5350;42.698;23.148;2023-04-29T13:33:17;1.52;;;0.70;;
10605;SDS011;5350;42.698;23.148;2023-04-29T13:35:44;1.63;;;0.73;;
10605;SDS011;5350;42.698;23.148;2023-04-29T13:38:11;1.52;;;0.80;;
10605;SDS011;5350;42.698;23.148;2023-04-29T13:40:38;2.80;;;0.75;;
10605;SDS011;5350;42.698;23.148;2023-04-29T13:43:04;2.60;;;1.10;;
10605;SDS011;5350;42.698;23.148;2023-04-29T13:45:31;4.13;;;1.05;;
10605;SDS011;5350;42.698;23.148;2023-04-29T13:47:58;1.02;;;0.88;;
10605;SDS011;5350;42.698;23.148;2023-04-29T13:50:26;1.45;;;1.17;;
10605;SDS011;5350;42.698;23.148;2023-04-29T13:52:53;3.00;;;1.00;;
10605;SDS011;5350;42.698;23.148;2023-04-29T13:55:20;3.10;;;1.42;;
10605;SDS011;5350;42.698;23.148;2023-04-29T13:57:47;0.80;;;0.80;;
10605;SDS011;5350;42.698;23.148;2023-04-29T14:00:15;1.98;;;1.13;;
10605;SDS011;5350;42.698;23.148;2023-04-29T14:02:42;2.83;;;1.33;;
10605;SDS011;5350;42.698;23.148;2023-04-29T14:05:09;4.00;;;1.45;;
10605;SDS011;5350;42.698;23.148;2023-04-29T14:07:37;2.03;;;1.83;;
10605;SDS011;5350;42.698;23.148;2023-04-29T14:10:04;4.00;;;1.70;;
10605;SDS011;5350;42.698;23.148;2023-04-29T14:12:31;2.08;;;1.20;;
10605;SDS011;5350;42.698;23.148;2023-04-29T14:14:58;3.85;;;1.20;;
10605;SDS011;5350;42.698;23.148;2023-04-29T14:17:24;2.05;;;1.17;;
10605;SDS011;5350;42.698;23.148;2023-04-29T14:19:51;1.73;;;1.10;;
10605;SDS011;5350;42.698;23.148;2023-04-29T14:22:18;4.00;;;1.20;;
10605;SDS011;5350;42.698;23.148;2023-04-29T14:24:46;1.73;;;0.93;;
10605;SDS011;5350;42.698;23.148;2023-04-29T14:27:13;3.65;;;1.05;;
10605;SDS011;5350;42.698;23.148;2023-04-29T14:29:40;3.67;;;2.45;;
10605;SDS011;5350;42.698;23.148;2023-04-29T14:32:07;3.55;;;2.50;;
10605;SDS011;5350;42.698;23.148;2023-04-29T14:34:34;1.88;;;1.70;;
10605;SDS011;5350;42.698;23.148;2023-04-29T14:37:00;2.08;;;1.45;;
10605;SDS011;5350;42.698;23.148;2023-04-29T14:39:27;2.92;;;1.25;;
10605;SDS011;5350;42.698;23.148;2023-04-29T14:41:55;4.43;;;1.63;;
10605;SDS011;5350;42.698;23.148;2023-04-29T14:44:22;2.38;;;1.40;;
10605;SDS011;5350;42.698;23.148;2023-04-29T14:46:48;2.10;;;1.45;;
10605;SDS011;5350;42.698;23.148;2023-04-29T14:49:15;4.07;;;1.50;;
10605;SDS011;5350;42.698;23.148;2023-04-29T14:51:42;5.75;;;2.08;;
10605;SDS011;5350;42.698;23.148;2023-04-29T14:54:08;2.10;;;1.80;;